Marriottsville, Maryland
Current Conditions -  °F | °C
As of 2:54 AM on Monday 22 Dec 2014 (Local Time) from KBWI Reporting Station
Broken Clouds Broken Clouds  
Wind Chill: 26°   Ceiling: 25000
Heat Index: 26°   Visibility: 7mi
Dew Point: 22°   Wind: 0mph
Humidity: 84%   Direction: NA
Pressure: 30.32"   Gusts: NA
Location:  39.32°N, 76.92°W
Report Text: KBWI 220754Z 00000KT 7SM BKN250 M03/M06 A3032 RMK AO2 SLP270 T10331056
Loading
Personal Weather Stations






























Interactive Weather Map New forecast layout! Learn more

10-Day Weather Forecast

Advertisements
Track Severe Weather on mobile